createdAt,value
2018-12-13T00:01:54.919Z,4.81
2018-12-13T00:04:24.421Z,4.74
2018-12-13T00:06:54.199Z,4.70
2018-12-13T00:09:23.899Z,4.62
2018-12-13T00:11:53.439Z,4.56
2018-12-13T00:14:22.906Z,4.50
2018-12-13T00:16:52.214Z,4.50
2018-12-13T00:19:21.604Z,4.47
2018-12-13T00:22:08.240Z,4.47
2018-12-13T00:24:40.885Z,4.40
2018-12-13T00:27:10.165Z,4.40
2018-12-13T00:29:39.605Z,4.41
2018-12-13T00:32:08.864Z,4.42
2018-12-13T00:34:38.218Z,4.36
2018-12-13T00:37:07.635Z,4.41
2018-12-13T00:39:37.023Z,4.30
2018-12-13T00:42:06.212Z,4.24
2018-12-13T00:44:35.404Z,4.30
2018-12-13T00:47:04.741Z,4.16
2018-12-13T00:49:34.033Z,4.18
2018-12-13T00:52:03.378Z,4.14
2018-12-13T00:54:32.578Z,4.21
2018-12-13T00:57:01.787Z,4.21
2018-12-13T00:59:32.783Z,4.22
2018-12-13T01:02:02.194Z,4.18
2018-12-13T01:04:31.388Z,4.16
2018-12-13T01:07:00.652Z,4.13
2018-12-13T01:09:29.799Z,4.13
2018-12-13T01:11:59.046Z,4.14
2018-12-13T01:14:29.024Z,4.13
2018-12-13T01:16:58.349Z,4.14
2018-12-13T01:19:27.832Z,4.16
2018-12-13T01:21:57.157Z,4.13
2018-12-13T01:24:26.383Z,4.13
2018-12-13T01:26:56.232Z,4.14
2018-12-13T01:29:25.399Z,4.19
2018-12-13T01:31:54.769Z,4.23
2018-12-13T01:34:24.814Z,4.23
2018-12-13T01:36:54.153Z,4.28
2018-12-13T01:39:23.465Z,4.30
2018-12-13T01:41:52.850Z,4.33
2018-12-13T01:44:22.073Z,4.38
2018-12-13T01:47:08.292Z,4.44
2018-12-13T01:49:40.276Z,4.45
2018-12-13T01:52:09.632Z,4.46
2018-12-13T01:54:39.038Z,4.41
2018-12-13T01:57:08.563Z,4.33
2018-12-13T01:59:37.942Z,4.25
2018-12-13T02:02:08.391Z,4.18
2018-12-13T02:04:37.613Z,4.12
2018-12-13T02:07:06.936Z,4.07
2018-12-13T02:09:36.208Z,4.00
2018-12-13T02:12:05.586Z,3.94
2018-12-13T02:14:34.849Z,3.90
2018-12-13T02:17:04.537Z,3.86
2018-12-13T02:19:33.824Z,3.81
2018-12-13T02:22:03.526Z,3.83
2018-12-13T02:24:33.447Z,3.80
2018-12-13T02:27:02.747Z,3.76
2018-12-13T02:29:32.051Z,3.71
2018-12-13T02:32:01.593Z,3.69
2018-12-13T02:34:30.862Z,3.73
2018-12-13T02:37:05.929Z,3.69
2018-12-13T02:39:32.014Z,3.68
2018-12-13T02:42:01.255Z,3.68
2018-12-13T02:44:30.678Z,3.68
2018-12-13T02:46:59.990Z,3.68
2018-12-13T02:49:29.289Z,3.71
2018-12-13T02:51:59.845Z,3.69
2018-12-13T02:54:29.123Z,3.65
2018-12-13T02:56:58.481Z,3.64
2018-12-13T02:59:29.444Z,3.60
2018-12-13T03:01:59.097Z,3.60
2018-12-13T03:04:28.286Z,3.61
2018-12-13T03:06:57.596Z,3.57
2018-12-13T03:09:27.822Z,3.58
2018-12-13T03:11:57.222Z,3.54
2018-12-13T03:14:26.843Z,3.59
2018-12-13T03:16:56.182Z,3.66
2018-12-13T03:19:25.627Z,3.64
2018-12-13T03:21:54.928Z,3.61
2018-12-13T03:24:24.300Z,3.55
2018-12-13T03:26:53.529Z,3.55
2018-12-13T03:29:23.505Z,3.55
2018-12-13T03:31:53.062Z,3.50
2018-12-13T03:34:22.428Z,3.47
2018-12-13T03:36:51.649Z,3.44
2018-12-13T03:39:21.193Z,3.43
2018-12-13T03:41:50.671Z,3.45
2018-12-13T03:44:20.105Z,3.43
2018-12-13T03:46:49.751Z,3.44
2018-12-13T03:49:19.077Z,3.42
2018-12-13T03:51:48.285Z,3.41
2018-12-13T03:54:17.956Z,3.43
2018-12-13T03:56:47.196Z,3.41
2018-12-13T03:59:16.687Z,3.37
2018-12-13T04:01:45.888Z,3.35
2018-12-13T04:04:15.134Z,3.31
2018-12-13T04:06:44.600Z,3.33
2018-12-13T04:09:13.995Z,3.27
2018-12-13T04:11:43.315Z,3.26
2018-12-13T04:14:12.621Z,3.25
2018-12-13T04:16:41.938Z,3.21
2018-12-13T04:19:11.987Z,3.18
2018-12-13T04:21:41.359Z,3.17
2018-12-13T04:24:10.687Z,3.18
2018-12-13T04:26:40.026Z,3.18
2018-12-13T04:29:12.093Z,3.19
2018-12-13T04:31:41.419Z,3.18
2018-12-13T04:34:10.836Z,3.15
2018-12-13T04:36:40.332Z,3.15
2018-12-13T04:39:10.128Z,3.12
2018-12-13T04:41:39.471Z,3.13
2018-12-13T04:44:08.901Z,3.12
2018-12-13T04:46:39.594Z,3.09
2018-12-13T04:49:09.687Z,3.04
2018-12-13T04:51:39.392Z,3.04
2018-12-13T04:54:08.739Z,3.02
2018-12-13T04:56:38.236Z,3.01
2018-12-13T04:59:08.536Z,2.97
2018-12-13T05:01:37.986Z,2.96
2018-12-13T05:04:08.048Z,3.00
2018-12-13T05:06:37.295Z,2.97
2018-12-13T05:09:08.299Z,2.96
2018-12-13T05:11:37.698Z,2.91
2018-12-13T05:14:08.156Z,2.90
2018-12-13T05:16:38.595Z,2.87
2018-12-13T05:19:09.000Z,2.84
2018-12-13T05:21:39.122Z,2.80
2018-12-13T05:24:09.717Z,2.79
2018-12-13T05:26:39.008Z,2.78
2018-12-13T05:29:08.567Z,2.79
2018-12-13T05:31:40.488Z,2.77
2018-12-13T05:34:09.911Z,2.74
2018-12-13T05:36:39.313Z,2.76
2018-12-13T05:39:09.078Z,2.73
2018-12-13T05:41:38.708Z,2.72
2018-12-13T05:44:08.414Z,2.70
2018-12-13T05:46:38.688Z,2.70
2018-12-13T05:49:08.035Z,2.66
2018-12-13T05:51:37.392Z,2.63
2018-12-13T05:54:09.513Z,2.60
2018-12-13T05:56:39.131Z,2.59
2018-12-13T05:59:08.445Z,2.59
2018-12-13T06:01:37.894Z,2.55
2018-12-13T06:04:07.281Z,2.53
2018-12-13T06:06:36.801Z,2.54
2018-12-13T06:09:08.127Z,2.52
2018-12-13T06:11:38.002Z,2.52
2018-12-13T06:14:07.636Z,2.54
2018-12-13T06:16:38.230Z,2.53
2018-12-13T06:19:07.761Z,2.56
2018-12-13T06:21:37.278Z,2.55
2018-12-13T06:24:06.658Z,2.56
2018-12-13T06:26:36.293Z,2.57
2018-12-13T06:29:05.963Z,2.53
2018-12-13T06:31:35.715Z,2.54
2018-12-13T06:34:07.283Z,2.63
2018-12-13T06:36:37.363Z,2.59
2018-12-13T06:39:08.571Z,2.57
2018-12-13T06:41:38.126Z,2.59
2018-12-13T06:44:07.661Z,2.59
2018-12-13T06:46:37.947Z,2.63
2018-12-13T06:49:07.555Z,2.59
2018-12-13T06:51:36.850Z,2.59
2018-12-13T06:54:06.905Z,2.57
2018-12-13T06:56:36.864Z,2.60
2018-12-13T06:59:07.755Z,2.61
2018-12-13T07:01:37.344Z,2.60
2018-12-13T07:04:08.438Z,2.52
2018-12-13T07:06:37.937Z,2.49
2018-12-13T07:09:09.312Z,2.46
2018-12-13T07:11:38.719Z,2.46
2018-12-13T07:14:08.357Z,2.45
2018-12-13T07:16:37.768Z,2.43
2018-12-13T07:19:07.078Z,2.46
2018-12-13T07:21:36.891Z,2.47
2018-12-13T07:24:06.359Z,2.42
2018-12-13T07:26:35.623Z,2.41
2018-12-13T07:29:05.181Z,2.40
2018-12-13T07:31:34.417Z,2.39
2018-12-13T07:34:04.011Z,2.39
2018-12-13T07:36:33.471Z,2.40
2018-12-13T07:39:03.122Z,2.37
2018-12-13T07:41:32.486Z,2.41
2018-12-13T07:44:01.952Z,2.43
2018-12-13T07:46:31.494Z,2.42
2018-12-13T07:49:00.865Z,2.42
2018-12-13T07:51:30.060Z,2.38
2018-12-13T07:53:59.316Z,2.48
2018-12-13T07:56:29.306Z,2.45
2018-12-13T07:58:58.801Z,2.45
2018-12-13T08:01:28.121Z,2.42
2018-12-13T08:04:04.360Z,2.39
2018-12-13T08:06:33.540Z,2.37
2018-12-13T08:09:03.149Z,2.33
2018-12-13T08:11:32.579Z,2.32
2018-12-13T08:14:03.649Z,2.37
2018-12-13T08:16:33.016Z,2.39
2018-12-13T08:19:04.194Z,2.41
2018-12-13T08:21:33.446Z,2.39
2018-12-13T08:24:03.262Z,2.39
2018-12-13T08:26:32.722Z,2.39
2018-12-13T08:29:02.507Z,2.45
2018-12-13T08:31:31.719Z,2.46
2018-12-13T08:34:01.293Z,2.50
2018-12-13T08:36:31.470Z,2.46
2018-12-13T08:39:00.749Z,2.47
2018-12-13T08:41:30.152Z,2.46
2018-12-13T08:43:59.826Z,2.45
2018-12-13T08:46:29.336Z,2.51
2018-12-13T08:48:59.983Z,2.51
2018-12-13T08:51:31.087Z,2.50
2018-12-13T08:54:01.833Z,2.49
2018-12-13T08:56:31.209Z,2.51
2018-12-13T08:59:00.561Z,2.53
2018-12-13T09:01:30.067Z,2.59
2018-12-13T09:03:59.375Z,2.72
2018-12-13T09:06:28.858Z,2.68
2018-12-13T09:08:58.204Z,2.68
2018-12-13T09:11:27.749Z,2.70
2018-12-13T09:13:57.361Z,2.71
2018-12-13T09:16:31.507Z,2.74
2018-12-13T09:18:59.137Z,2.77
2018-12-13T09:21:28.466Z,2.82
2018-12-13T09:23:57.833Z,2.84
2018-12-13T09:26:27.581Z,2.87
2018-12-13T09:28:56.982Z,2.88
2018-12-13T09:31:26.381Z,2.96
2018-12-13T09:33:56.097Z,3.01
2018-12-13T09:36:25.754Z,3.10
2018-12-13T09:38:55.020Z,3.16
2018-12-13T09:41:24.400Z,3.19
2018-12-13T09:43:54.072Z,3.24
2018-12-13T09:46:23.457Z,3.29
2018-12-13T09:48:53.056Z,3.31
2018-12-13T09:51:22.937Z,3.39
2018-12-13T09:53:52.253Z,3.43
2018-12-13T09:56:22.350Z,3.53
2018-12-13T09:58:51.751Z,3.53
2018-12-13T10:01:21.226Z,3.57
2018-12-13T10:03:50.807Z,3.62
2018-12-13T10:06:21.393Z,3.67
2018-12-13T10:08:50.900Z,3.65
2018-12-13T10:11:20.301Z,3.71
2018-12-13T10:13:49.874Z,3.71
2018-12-13T10:16:19.410Z,3.75
2018-12-13T10:18:48.683Z,3.80
2018-12-13T10:21:18.462Z,3.85
2018-12-13T10:23:49.586Z,3.97
2018-12-13T10:26:19.201Z,3.96
2018-12-13T10:28:49.260Z,3.97
2018-12-13T10:31:20.333Z,3.99
2018-12-13T10:33:49.953Z,4.02
2018-12-13T10:36:19.518Z,4.01
2018-12-13T10:38:53.050Z,4.03
2018-12-13T10:41:20.487Z,4.08
2018-12-13T10:43:50.094Z,4.18
2018-12-13T10:46:19.507Z,4.23
2018-12-13T10:48:49.038Z,4.23
2018-12-13T10:51:18.322Z,4.27
2018-12-13T10:53:48.085Z,4.31
2018-12-13T10:56:18.781Z,4.32
2018-12-13T10:58:49.201Z,4.34
2018-12-13T11:01:24.491Z,4.35
2018-12-13T11:03:54.415Z,4.42
2018-12-13T11:06:23.675Z,4.44
2018-12-13T11:08:59.225Z,4.46
2018-12-13T11:11:25.637Z,4.47
2018-12-13T11:13:56.610Z,4.46
2018-12-13T11:16:26.267Z,4.46
2018-12-13T11:18:55.931Z,4.41
2018-12-13T11:21:25.298Z,4.45
2018-12-13T11:23:54.711Z,4.50
2018-12-13T11:26:24.037Z,4.51
2018-12-13T11:30:02.888Z,4.46
2018-12-13T11:32:32.393Z,4.46
2018-12-13T11:35:02.563Z,4.51
2018-12-13T11:37:34.367Z,4.53
2018-12-13T11:40:06.017Z,4.46
2018-12-13T11:42:35.431Z,4.46
2018-12-13T11:45:05.288Z,4.46
2018-12-13T11:47:34.832Z,4.49
2018-12-13T11:50:05.044Z,4.50
2018-12-13T11:52:35.242Z,4.51
2018-12-13T11:55:18.966Z,4.57
2018-12-13T11:57:48.321Z,4.64
2018-12-13T12:00:19.709Z,4.71
2018-12-13T12:02:52.892Z,4.78
2018-12-13T12:05:22.696Z,4.83
2018-12-13T12:07:52.012Z,4.89
2018-12-13T12:10:22.042Z,5.39
2018-12-13T12:12:51.419Z,5.80
2018-12-13T12:15:20.795Z,7.14
2018-12-13T12:17:50.095Z,7.02
2018-12-13T12:20:19.466Z,7.10
2018-12-13T12:22:48.872Z,7.39
2018-12-13T12:25:18.146Z,7.90
2018-12-13T12:27:47.551Z,7.96
2018-12-13T12:30:16.862Z,8.42
2018-12-13T12:32:46.255Z,9.57
2018-12-13T12:35:15.682Z,9.49
2018-12-13T12:37:45.962Z,9.62
2018-12-13T12:40:15.354Z,9.73
2018-12-13T12:42:44.910Z,9.36
2018-12-13T12:45:14.930Z,9.52
2018-12-13T12:47:44.447Z,10.22
2018-12-13T12:50:13.892Z,10.30
2018-12-13T12:52:43.301Z,10.13
2018-12-13T12:55:12.758Z,9.85
2018-12-13T12:57:42.061Z,9.74
2018-12-13T13:00:13.117Z,9.29
2018-12-13T13:02:42.865Z,8.95
2018-12-13T13:05:12.310Z,8.61
2018-12-13T13:07:41.842Z,8.39
2018-12-13T13:10:11.060Z,7.83
2018-12-13T13:12:40.818Z,7.38
2018-12-13T13:15:10.530Z,7.07
2018-12-13T13:17:40.011Z,6.79
2018-12-13T13:20:09.485Z,6.57
2018-12-13T13:22:39.002Z,6.35
2018-12-13T13:25:08.666Z,6.21
2018-12-13T13:27:38.328Z,5.89
2018-12-13T13:30:07.878Z,5.74
2018-12-13T13:32:37.639Z,5.59
2018-12-13T13:35:07.444Z,5.52
2018-12-13T13:37:37.724Z,5.43
2018-12-13T13:40:07.045Z,5.36
2018-12-13T13:42:36.502Z,5.17
2018-12-13T13:45:06.545Z,5.12
2018-12-13T13:47:36.050Z,5.07
2018-12-13T13:50:06.414Z,5.08
2018-12-13T13:52:35.767Z,5.04
2018-12-13T13:55:05.591Z,4.94
2018-12-13T13:57:34.916Z,4.89
2018-12-13T14:00:05.399Z,4.83
2018-12-13T14:02:35.345Z,4.80
2018-12-13T14:05:04.972Z,4.62
2018-12-13T14:07:34.173Z,4.63
2018-12-13T14:10:04.394Z,4.57
2018-12-13T14:12:33.873Z,4.61
2018-12-13T14:15:03.201Z,4.58
2018-12-13T14:17:32.580Z,4.60
2018-12-13T14:20:01.993Z,4.55
2018-12-13T14:22:31.524Z,4.51
2018-12-13T14:25:00.952Z,4.50
2018-12-13T14:27:30.694Z,4.46
2018-12-13T14:30:00.144Z,4.43
2018-12-13T14:32:29.628Z,4.43
2018-12-13T14:34:59.234Z,4.40
2018-12-13T14:37:29.004Z,4.31
2018-12-13T14:39:58.509Z,4.29
2018-12-13T14:42:30.458Z,4.32
2018-12-13T14:44:59.837Z,4.32
2018-12-13T14:47:29.283Z,4.25
2018-12-13T14:49:59.002Z,4.18
2018-12-13T14:52:28.282Z,4.13
2018-12-13T14:54:58.377Z,4.17
2018-12-13T14:57:28.437Z,4.20
2018-12-13T14:59:57.640Z,4.13
2018-12-13T15:02:27.064Z,4.05
2018-12-13T15:04:56.618Z,4.02
2018-12-13T15:07:25.978Z,3.98
2018-12-13T15:09:55.339Z,4.00
2018-12-13T15:12:25.264Z,3.94
2018-12-13T15:14:54.758Z,3.92
2018-12-13T15:17:24.002Z,3.91
2018-12-13T15:19:53.434Z,3.85
2018-12-13T15:22:22.823Z,3.79
2018-12-13T15:24:52.209Z,3.76
2018-12-13T15:27:21.520Z,3.69
2018-12-13T15:29:51.748Z,3.72
2018-12-13T15:32:20.964Z,3.65
2018-12-13T15:34:50.119Z,3.60
2018-12-13T15:37:19.523Z,3.54
2018-12-13T15:39:48.719Z,3.59
2018-12-13T15:42:17.954Z,3.53
2018-12-13T15:44:47.208Z,3.49
2018-12-13T15:47:16.658Z,3.47
2018-12-13T15:49:46.953Z,3.45
2018-12-13T15:52:16.358Z,3.40
2018-12-13T15:54:52.584Z,3.35
2018-12-13T15:57:22.384Z,3.30
2018-12-13T15:59:52.444Z,3.26
2018-12-13T16:02:22.153Z,3.28
2018-12-13T16:04:51.358Z,3.24
2018-12-13T16:07:21.618Z,3.20
2018-12-13T16:09:51.403Z,3.17
2018-12-13T16:12:20.983Z,3.22
2018-12-13T16:14:50.184Z,3.18
2018-12-13T16:17:20.293Z,3.14
2018-12-13T16:19:50.544Z,3.13
2018-12-13T16:22:20.129Z,3.07
2018-12-13T16:24:49.608Z,3.02
2018-12-13T16:27:19.628Z,3.03
2018-12-13T16:29:49.293Z,3.04
2018-12-13T16:32:19.750Z,3.00
2018-12-13T16:34:49.099Z,2.97
2018-12-13T16:37:18.451Z,2.95
2018-12-13T16:39:47.786Z,2.94
2018-12-13T16:42:17.090Z,2.89
2018-12-13T16:44:46.291Z,2.88
2018-12-13T16:47:16.002Z,2.87
2018-12-13T16:49:45.990Z,2.83
2018-12-13T16:52:15.318Z,2.80
2018-12-13T16:54:44.510Z,2.85
2018-12-13T16:57:14.408Z,2.82
2018-12-13T16:59:43.723Z,2.79
2018-12-13T17:02:12.943Z,2.79
2018-12-13T17:04:42.945Z,2.74
2018-12-13T17:07:12.396Z,2.75
2018-12-13T17:09:41.585Z,2.74
2018-12-13T17:12:10.956Z,2.79
2018-12-13T17:14:40.304Z,2.75
2018-12-13T17:17:09.584Z,2.80
2018-12-13T17:19:38.960Z,2.78
2018-12-13T17:22:09.654Z,2.79
2018-12-13T17:24:39.433Z,2.75
2018-12-13T17:27:08.791Z,2.77
2018-12-13T17:29:38.171Z,2.79
2018-12-13T17:32:08.500Z,2.76
2018-12-13T17:34:37.761Z,2.75
2018-12-13T17:37:07.063Z,2.73
2018-12-13T17:39:36.625Z,2.74
2018-12-13T17:42:05.985Z,2.67
2018-12-13T17:44:35.306Z,2.65
2018-12-13T17:47:05.461Z,2.60
2018-12-13T17:49:35.284Z,2.59
2018-12-13T17:52:04.607Z,2.60
2018-12-13T17:54:34.385Z,2.61
2018-12-13T17:57:03.731Z,2.59
2018-12-13T17:59:33.534Z,2.56
2018-12-13T18:02:03.346Z,2.59
2018-12-13T18:04:33.180Z,2.69
2018-12-13T18:07:02.371Z,2.71
2018-12-13T18:09:32.356Z,2.79
2018-12-13T18:12:01.722Z,2.84
2018-12-13T18:14:30.951Z,2.92
2018-12-13T18:17:00.124Z,3.00
2018-12-13T18:19:29.297Z,3.08
2018-12-13T18:21:59.671Z,3.11
2018-12-13T18:24:29.039Z,3.10
2018-12-13T18:26:58.280Z,3.20
2018-12-13T18:29:28.298Z,3.24
2018-12-13T18:31:57.632Z,3.27
2018-12-13T18:34:26.835Z,3.28
2018-12-13T18:36:56.601Z,3.35
2018-12-13T18:39:26.564Z,3.37
2018-12-13T18:41:56.677Z,3.38
2018-12-13T18:44:26.083Z,3.41
2018-12-13T18:46:55.377Z,3.44
2018-12-13T18:49:25.739Z,3.47
2018-12-13T18:51:55.106Z,3.48
2018-12-13T18:54:24.537Z,3.50
2018-12-13T18:56:54.140Z,3.53
2018-12-13T18:59:24.036Z,3.57
2018-12-13T19:01:53.566Z,3.63
2018-12-13T19:04:24.864Z,3.65
2018-12-13T19:06:54.459Z,3.62
2018-12-13T19:09:23.704Z,3.66
2018-12-13T19:11:52.958Z,3.66
2018-12-13T19:14:23.419Z,3.65
2018-12-13T19:16:54.987Z,3.66
2018-12-13T19:19:26.497Z,3.65
2018-12-13T19:21:57.311Z,3.68
2018-12-13T19:26:59.786Z,3.68
2018-12-13T19:29:30.255Z,3.68
2018-12-13T19:32:01.245Z,3.70
2018-12-13T19:34:31.693Z,3.67
2018-12-13T19:37:02.304Z,3.70
2018-12-13T19:39:32.938Z,3.71
2018-12-13T19:42:02.560Z,3.73
2018-12-13T19:44:32.140Z,3.74
2018-12-13T19:47:01.439Z,3.76
2018-12-13T19:49:30.841Z,3.80
2018-12-13T19:52:00.773Z,3.78
2018-12-13T19:54:31.721Z,3.78
2018-12-13T19:57:00.968Z,3.77
2018-12-13T19:59:30.482Z,3.78
2018-12-13T20:02:00.595Z,3.80
2018-12-13T20:04:29.891Z,3.80
2018-12-13T20:07:00.366Z,3.78
2018-12-13T20:09:29.594Z,3.78
2018-12-13T20:11:59.628Z,3.80
2018-12-13T20:14:29.761Z,3.80
2018-12-13T20:16:59.262Z,3.82
2018-12-13T20:19:28.561Z,3.84
2018-12-13T20:21:58.002Z,3.79
2018-12-13T20:24:27.236Z,3.78
2018-12-13T20:26:56.599Z,3.79
2018-12-13T20:29:26.453Z,3.77
2018-12-13T20:31:56.060Z,3.77
2018-12-13T20:34:26.073Z,3.79
2018-12-13T20:36:55.838Z,3.79
2018-12-13T20:39:25.029Z,3.78
2018-12-13T20:41:55.232Z,3.81
2018-12-13T20:44:24.558Z,3.86
2018-12-13T20:46:53.735Z,3.80
2018-12-13T20:49:23.007Z,3.80
2018-12-13T20:51:52.309Z,3.78
2018-12-13T20:54:21.535Z,3.76
2018-12-13T20:56:51.000Z,3.81
2018-12-13T20:59:20.906Z,3.81
2018-12-13T21:01:50.142Z,3.78
2018-12-13T21:04:19.309Z,3.80
2018-12-13T21:06:52.640Z,3.81
2018-12-13T21:09:22.086Z,3.83
2018-12-13T21:11:51.454Z,3.78
2018-12-13T21:14:20.809Z,3.78
2018-12-13T21:16:50.304Z,3.74
2018-12-13T21:19:19.546Z,3.74
2018-12-13T21:21:48.824Z,3.79
2018-12-13T21:24:18.766Z,3.75
2018-12-13T21:26:48.801Z,3.76
2018-12-13T21:29:19.320Z,3.70
2018-12-13T21:31:49.615Z,3.76
2018-12-13T21:34:18.992Z,3.70
2018-12-13T21:36:48.700Z,3.66
2018-12-13T21:39:18.418Z,3.65
2018-12-13T21:41:47.649Z,3.62
2018-12-13T21:44:16.913Z,3.59
2018-12-13T21:46:46.157Z,3.58
2018-12-13T21:49:15.915Z,3.57
2018-12-13T21:51:45.218Z,3.55
2018-12-13T21:54:17.020Z,3.55
2018-12-13T21:56:46.751Z,3.50
2018-12-13T21:59:16.049Z,3.53
2018-12-13T22:01:45.542Z,3.50
2018-12-13T22:04:15.432Z,3.52
2018-12-13T22:06:44.799Z,3.51
2018-12-13T22:09:14.058Z,3.52
2018-12-13T22:11:45.020Z,3.56
2018-12-13T22:14:14.391Z,3.48
2018-12-13T22:16:43.797Z,3.48
2018-12-13T22:19:13.122Z,3.46
2018-12-13T22:21:42.909Z,3.46
2018-12-13T22:24:12.573Z,3.45
2018-12-13T22:26:42.066Z,3.50
2018-12-13T22:29:11.338Z,3.48
2018-12-13T22:31:40.749Z,3.46
2018-12-13T22:34:10.076Z,3.46
2018-12-13T22:36:39.960Z,3.37
2018-12-13T22:39:09.248Z,3.37
2018-12-13T22:41:40.095Z,3.38
2018-12-13T22:44:15.536Z,3.37
2018-12-13T22:46:48.178Z,3.43
2018-12-13T22:49:17.527Z,3.34
2018-12-13T22:51:46.765Z,3.38
2018-12-13T22:54:16.006Z,3.34
2018-12-13T22:56:45.443Z,3.38
2018-12-13T22:59:14.747Z,3.39
2018-12-13T23:01:44.177Z,3.34
2018-12-13T23:04:13.434Z,3.40
2018-12-13T23:06:42.696Z,3.38
2018-12-13T23:09:11.982Z,3.35
2018-12-13T23:11:41.264Z,3.38
2018-12-13T23:14:10.869Z,3.35
2018-12-13T23:16:40.709Z,3.32
2018-12-13T23:19:09.939Z,3.31
2018-12-13T23:21:39.208Z,3.28
2018-12-13T23:24:08.448Z,3.37
2018-12-13T23:26:37.661Z,3.36
2018-12-13T23:29:06.988Z,3.36
2018-12-13T23:31:36.103Z,3.31
2018-12-13T23:34:05.429Z,3.33
2018-12-13T23:36:34.721Z,3.32
2018-12-13T23:39:04.884Z,3.27
2018-12-13T23:41:39.205Z,3.30
2018-12-13T23:44:05.298Z,3.28
2018-12-13T23:46:34.455Z,3.31
2018-12-13T23:49:03.777Z,3.40
2018-12-13T23:51:32.920Z,3.33
2018-12-13T23:54:02.432Z,3.30
2018-12-13T23:56:31.695Z,3.30
2018-12-13T23:59:01.244Z,3.28
